Time;durP1;ratioP1;P1;durP2;ratioP2;P2;SDS_P1;SDS_P2;PMS_P1;PMS_P2;Temp;Humidity;BMP_temperature;BMP_pressure;BME280_temperature;BME280_humidity;BME280_pressure;Samples;Min_cycle;Max_cycle;Signal;HPM_P1;HPM_P2
2022/05/04 00:00:23;;;;;;;54.65;25.77;;;10.90;99.90;;;;;;5030278;28;20045;-63
2022/05/04 00:02:51;;;;;;;60.20;29.98;;;10.80;99.90;;;;;;5029894;28;20485;-59
2022/05/04 00:05:19;;;;;;;58.92;28.45;;;10.70;99.90;;;;;;5028942;28;20037;-61
2022/05/04 00:07:46;;;;;;;64.78;28.08;;;10.70;99.90;;;;;;5030750;28;20053;-58
2022/05/04 00:10:14;;;;;;;59.15;29.17;;;10.70;99.90;;;;;;5030022;28;20054;-58
2022/05/04 00:12:42;;;;;;;59.90;29.25;;;10.70;99.90;;;;;;5030559;28;20049;-58
2022/05/04 00:15:10;;;;;;;60.72;29.85;;;10.70;99.90;;;;;;5015066;28;20044;-58
2022/05/04 00:17:38;;;;;;;63.22;28.92;;;10.70;99.90;;;;;;5030137;28;20519;-58
2022/05/04 00:20:07;;;;;;;53.70;27.38;;;10.70;99.90;;;;;;5029141;28;20065;-58
2022/05/04 00:22:35;;;;;;;53.50;26.60;;;10.70;99.90;;;;;;5028834;28;20061;-60
2022/05/04 00:25:03;;;;;;;63.33;29.88;;;10.60;99.90;;;;;;5030412;28;20046;-60
2022/05/04 00:27:31;;;;;;;58.67;27.45;;;10.70;99.90;;;;;;5029872;28;20508;-60
2022/05/04 00:29:59;;;;;;;52.47;26.73;;;10.60;99.90;;;;;;5061171;28;20332;-60
2022/05/04 00:32:27;;;;;;;52.80;26.98;;;10.60;99.90;;;;;;5028023;28;20049;-60
2022/05/04 00:34:55;;;;;;;52.17;25.85;;;10.70;99.90;;;;;;5030084;28;20053;-62
2022/05/04 00:37:23;;;;;;;53.40;25.90;;;10.60;99.90;;;;;;5029992;28;20056;-60
2022/05/04 00:39:50;;;;;;;50.63;25.48;;;10.60;99.90;;;;;;5029873;28;20042;-60
2022/05/04 00:42:20;;;;;;;51.45;25.67;;;10.60;99.90;;;;;;5029724;28;20519;-60
2022/05/04 00:44:49;;;;;;;48.38;25.48;;;10.60;99.90;;;;;;5024750;28;20478;-61
2022/05/04 00:47:18;;;;;;;47.22;24.05;;;10.60;99.90;;;;;;5030819;28;20052;-60
2022/05/04 00:49:47;;;;;;;43.83;22.63;;;10.60;99.90;;;;;;5030360;28;20060;-61
2022/05/04 00:52:17;;;;;;;43.47;21.17;;;10.70;99.90;;;;;;5027999;28;20060;-60
2022/05/04 00:54:48;;;;;;;40.70;21.90;;;10.70;99.90;;;;;;5028835;28;20053;-58
2022/05/04 00:58:54;;;;;;;33.90;16.65;;;10.60;99.90;;;;;;5030398;28;20489;-60
2022/05/04 01:00:07;;;;;;;35.63;18.25;;;10.70;99.90;;;;;;5012442;28;20046;-58
2022/05/04 01:02:41;;;;;;;28.20;14.93;;;10.70;99.90;;;;;;5023972;28;20469;-58
2022/05/04 01:05:10;;;;;;;23.70;12.90;;;10.70;99.90;;;;;;5026556;28;20041;-58
2022/05/04 01:07:40;;;;;;;22.23;11.95;;;10.80;99.90;;;;;;5026416;28;20509;-60
2022/05/04 01:10:09;;;;;;;15.88;9.35;;;10.80;99.90;;;;;;5027115;28;20038;-63
2022/05/04 01:12:49;;;;;;;14.85;9.00;;;10.80;99.90;;;;;;5026367;28;20056;-63
2022/05/04 01:15:19;;;;;;;15.18;8.30;;;10.80;99.90;;;;;;4999199;28;20045;-62
2022/05/04 01:17:47;;;;;;;13.32;7.70;;;10.80;99.90;;;;;;5030018;28;20484;-62
2022/05/04 01:20:16;;;;;;;12.90;6.28;;;10.80;99.90;;;;;;5029348;28;20041;-63
2022/05/04 01:22:44;;;;;;;11.05;6.15;;;10.80;99.90;;;;;;5028824;28;20537;-63
2022/05/04 01:25:12;;;;;;;12.63;6.38;;;10.80;99.90;;;;;;5027447;28;20049;-61
2022/05/04 01:27:40;;;;;;;12.90;6.15;;;10.80;99.90;;;;;;5027022;28;20485;-64
2022/05/04 01:30:08;;;;;;;13.60;6.57;;;10.80;99.90;;;;;;5013922;28;20049;-64
2022/05/04 01:32:36;;;;;;;11.65;6.25;;;10.80;99.90;;;;;;5012493;28;20509;-61
2022/05/04 01:35:04;;;;;;;10.82;6.22;;;10.80;99.90;;;;;;5029187;28;20037;-63
2022/05/04 01:37:32;;;;;;;10.23;6.30;;;10.80;99.90;;;;;;5028925;28;20049;-64
2022/05/04 01:40:00;;;;;;;10.95;5.75;;;10.80;99.90;;;;;;5031563;28;20054;-64
2022/05/04 01:42:27;;;;;;;9.75;5.93;;;10.80;99.90;;;;;;5031023;28;20053;-63
2022/05/04 01:44:55;;;;;;;9.18;5.68;;;10.80;99.90;;;;;;5031534;28;20528;-62
2022/05/04 01:47:23;;;;;;;9.95;6.00;;;10.80;99.90;;;;;;5030070;28;20057;-61
2022/05/04 01:49:50;;;;;;;12.48;5.68;;;10.80;99.90;;;;;;5030716;28;20072;-64
2022/05/04 01:52:18;;;;;;;9.38;5.88;;;10.80;99.90;;;;;;5031647;28;20042;-63
2022/05/04 01:54:46;;;;;;;10.98;5.38;;;10.80;99.90;;;;;;5031595;28;20049;-61
2022/05/04 01:57:13;;;;;;;9.32;5.70;;;10.70;99.90;;;;;;5030309;28;20046;-62
2022/05/04 01:59:41;;;;;;;9.38;5.25;;;10.80;99.90;;;;;;5011181;28;21511;-61
2022/05/04 02:02:09;;;;;;;10.45;5.78;;;10.70;99.90;;;;;;5031501;28;20045;-60
2022/05/04 02:04:38;;;;;;;7.88;4.88;;;10.70;99.90;;;;;;5031494;28;20054;-61
2022/05/04 02:07:09;;;;;;;8.67;5.53;;;10.70;99.90;;;;;;5028841;28;20052;-61
2022/05/04 02:09:37;;;;;;;10.50;5.95;;;10.70;99.90;;;;;;5029501;28;20295;-60
2022/05/04 02:12:05;;;;;;;11.48;6.25;;;10.70;99.90;;;;;;5030338;28;20441;-60
2022/05/04 02:14:33;;;;;;;8.52;5.65;;;10.70;99.90;;;;;;5028957;28;20068;-61
2022/05/04 02:17:01;;;;;;;10.63;6.28;;;10.70;99.90;;;;;;5030437;28;20050;-61
2022/05/04 02:19:29;;;;;;;9.52;5.65;;;10.70;99.90;;;;;;5029057;28;20046;-61
2022/05/04 02:21:57;;;;;;;10.07;5.57;;;10.70;99.90;;;;;;5029983;28;20053;-61
2022/05/04 02:24:24;;;;;;;11.20;6.57;;;10.70;99.90;;;;;;5034064;28;20037;-61
2022/05/04 02:26:52;;;;;;;9.90;6.13;;;10.70;99.90;;;;;;5035323;28;20052;-60
2022/05/04 02:29:20;;;;;;;9.23;5.82;;;10.60;99.90;;;;;;5034252;28;20041;-61
2022/05/04 02:31:47;;;;;;;9.35;5.70;;;10.70;99.90;;;;;;5033593;28;20053;-61
2022/05/04 02:34:15;;;;;;;8.60;4.93;;;10.60;99.90;;;;;;5034049;28;20507;-60
2022/05/04 02:39:28;;;;;;;9.98;6.25;;;10.60;99.90;;;;;;5034849;28;20050;-61
2022/05/04 02:41:56;;;;;;;11.18;6.38;;;10.60;99.90;;;;;;5033870;28;20431;-61
2022/05/04 02:44:23;;;;;;;9.45;5.65;;;10.60;99.90;;;;;;5034790;28;20045;-60
2022/05/04 02:46:51;;;;;;;15.07;6.93;;;10.60;99.90;;;;;;5034136;28;20045;-60
2022/05/04 02:49:19;;;;;;;10.88;5.90;;;10.60;99.90;;;;;;5033753;28;20049;-60
2022/05/04 02:51:46;;;;;;;11.65;5.78;;;10.60;99.90;;;;;;5034202;28;20042;-61
2022/05/04 02:54:14;;;;;;;10.15;6.68;;;10.60;99.90;;;;;;5034784;28;20052;-60
2022/05/04 02:56:42;;;;;;;10.48;6.22;;;10.60;99.90;;;;;;5033665;28;20044;-61
2022/05/04 02:59:09;;;;;;;10.02;6.10;;;10.50;99.90;;;;;;5034538;28;20507;-60
2022/05/04 03:04:32;;;;;;;7.95;5.70;;;10.50;99.90;;;;;;5022316;28;20053;-61
2022/05/04 03:07:00;;;;;;;12.43;7.00;;;10.50;99.90;;;;;;5033292;28;20057;-62
2022/05/04 03:09:28;;;;;;;9.73;6.22;;;10.50;99.90;;;;;;5034316;28;20045;-61
2022/05/04 03:11:55;;;;;;;12.38;6.70;;;10.50;99.90;;;;;;5033219;28;20064;-64
2022/05/04 03:14:25;;;;;;;12.10;6.72;;;10.50;99.90;;;;;;5033274;28;20389;-61
2022/05/04 03:16:54;;;;;;;11.05;6.32;;;10.50;99.90;;;;;;5034140;28;20061;-61
2022/05/04 03:19:22;;;;;;;13.43;6.78;;;10.40;99.90;;;;;;5033061;28;20044;-61
2022/05/04 03:21:51;;;;;;;10.10;6.45;;;10.40;99.90;;;;;;5033305;28;20045;-61
2022/05/04 03:24:19;;;;;;;10.13;6.65;;;10.40;99.90;;;;;;5033821;28;20485;-61
2022/05/04 03:26:47;;;;;;;12.05;6.47;;;10.40;99.90;;;;;;5034134;28;20041;-60
2022/05/04 03:29:16;;;;;;;11.68;7.07;;;10.40;99.90;;;;;;5033938;28;20073;-61
2022/05/04 03:31:43;;;;;;;10.70;6.28;;;10.30;99.90;;;;;;5032648;28;20056;-61
2022/05/04 03:34:11;;;;;;;14.75;7.32;;;10.30;99.90;;;;;;5032933;28;20053;-61
2022/05/04 03:36:39;;;;;;;12.77;6.95;;;10.30;99.90;;;;;;5033134;28;20041;-62
2022/05/04 03:39:07;;;;;;;12.07;6.65;;;10.30;99.90;;;;;;5031343;28;20056;-61
2022/05/04 03:41:35;;;;;;;13.75;7.18;;;10.30;99.90;;;;;;5032762;28;20082;-60
2022/05/04 03:44:03;;;;;;;11.23;7.03;;;10.20;99.90;;;;;;5033792;28;20493;-61
2022/05/04 03:46:44;;;;;;;14.27;7.82;;;10.20;99.90;;;;;;5033823;28;20046;-62
2022/05/04 03:49:13;;;;;;;13.10;7.55;;;10.20;99.90;;;;;;5032517;28;20477;-63
2022/05/04 03:51:41;;;;;;;12.65;7.50;;;10.20;99.90;;;;;;5032397;28;20405;-60
2022/05/04 03:54:10;;;;;;;15.15;7.68;;;10.20;99.90;;;;;;5032493;28;20563;-62
2022/05/04 03:56:38;;;;;;;15.18;8.20;;;10.20;99.90;;;;;;5032321;28;20062;-62
2022/05/04 03:59:07;;;;;;;14.73;8.63;;;10.20;99.90;;;;;;5031468;28;20054;-62
2022/05/04 04:01:36;;;;;;;16.73;8.73;;;10.10;99.90;;;;;;5033285;28;20046;-63
2022/05/04 04:04:05;;;;;;;16.13;8.20;;;10.10;99.90;;;;;;5033446;28;20298;-62
2022/05/04 04:06:32;;;;;;;17.30;8.65;;;10.10;99.90;;;;;;5033367;28;20056;-64
2022/05/04 04:09:01;;;;;;;14.98;8.15;;;10.20;99.90;;;;;;5031337;28;20045;-61
2022/05/04 04:11:29;;;;;;;20.38;8.43;;;10.10;99.90;;;;;;5033475;28;20049;-62
2022/05/04 04:13:58;;;;;;;14.48;8.45;;;10.10;99.90;;;;;;5031120;28;20100;-63
2022/05/04 04:16:26;;;;;;;19.02;9.50;;;10.10;99.90;;;;;;5032584;28;20050;-64
2022/05/04 04:18:54;;;;;;;15.30;8.07;;;10.10;99.90;;;;;;5033170;28;20421;-64
2022/05/04 04:24:08;;;;;;;18.23;9.38;;;10.10;99.90;;;;;;5033082;28;20535;-62
2022/05/04 04:26:37;;;;;;;14.35;8.45;;;10.10;99.90;;;;;;5032062;28;20045;-62
2022/05/04 04:29:06;;;;;;;16.00;8.32;;;10.10;99.90;;;;;;5032005;28;20057;-60
2022/05/04 04:31:34;;;;;;;19.00;8.88;;;10.10;99.90;;;;;;5031609;28;20053;-60
2022/05/04 04:34:02;;;;;;;16.58;7.75;;;10.10;99.90;;;;;;5032896;28;20041;-59
2022/05/04 04:36:30;;;;;;;16.83;9.25;;;10.10;99.90;;;;;;5031684;28;20045;-59
2022/05/04 04:38:58;;;;;;;15.98;7.68;;;10.20;99.90;;;;;;5032060;28;20053;-59
2022/05/04 04:41:26;;;;;;;16.42;8.77;;;10.20;99.90;;;;;;5031667;28;20060;-58
2022/05/04 04:43:54;;;;;;;18.48;8.70;;;10.20;99.90;;;;;;5032582;28;20056;-59
2022/05/04 04:46:22;;;;;;;17.80;9.07;;;10.20;99.90;;;;;;5032717;28;20082;-58
2022/05/04 04:48:50;;;;;;;15.48;7.70;;;10.20;99.90;;;;;;5022032;28;20046;-59
2022/05/04 04:51:18;;;;;;;14.68;8.75;;;10.20;99.90;;;;;;5027846;28;20049;-58
2022/05/04 04:53:46;;;;;;;14.90;8.75;;;10.20;99.90;;;;;;5026432;28;20041;-58
2022/05/04 04:56:13;;;;;;;15.88;8.50;;;10.20;99.90;;;;;;5027798;28;20236;-58
2022/05/04 04:58:41;;;;;;;14.88;8.23;;;10.20;99.90;;;;;;5027865;28;20560;-58
2022/05/04 05:01:09;;;;;;;14.25;7.25;;;10.20;99.90;;;;;;5028989;28;20397;-61
2022/05/04 05:03:37;;;;;;;15.07;8.43;;;10.20;99.90;;;;;;5009471;28;20062;-58
2022/05/04 05:06:04;;;;;;;15.70;7.90;;;10.20;99.90;;;;;;5006854;28;20060;-58
2022/05/04 05:08:32;;;;;;;17.80;8.60;;;10.20;99.90;;;;;;5023189;28;20041;-59
2022/05/04 05:11:00;;;;;;;21.27;9.32;;;10.10;99.90;;;;;;5029230;28;20049;-59
2022/05/04 05:13:27;;;;;;;14.95;8.15;;;10.20;99.90;;;;;;5030355;28;20045;-59
2022/05/04 05:16:07;;;;;;;18.17;8.95;;;10.20;99.90;;;;;;5029184;28;20048;-60
2022/05/04 05:18:36;;;;;;;15.45;7.85;;;10.20;99.90;;;;;;5026476;28;20041;-63
2022/05/04 05:21:04;;;;;;;17.38;8.60;;;10.20;99.90;;;;;;5027756;28;20057;-58
2022/05/04 05:23:32;;;;;;;19.80;8.80;;;10.20;99.90;;;;;;5028051;28;20065;-59
2022/05/04 05:25:59;;;;;;;16.17;8.25;;;10.20;99.90;;;;;;5029100;28;20057;-58
2022/05/04 05:28:27;;;;;;;17.63;8.18;;;10.20;99.90;;;;;;5024589;28;20636;-58
2022/05/04 05:30:55;;;;;;;13.65;7.75;;;10.20;99.90;;;;;;5025421;28;20049;-58
2022/05/04 05:33:23;;;;;;;16.20;7.88;;;10.20;99.90;;;;;;5021850;28;20054;-58
2022/05/04 05:35:50;;;;;;;18.00;8.35;;;10.30;99.90;;;;;;5019868;28;20504;-58
2022/05/04 05:38:18;;;;;;;13.65;7.80;;;10.20;99.90;;;;;;5022479;28;20057;-58
2022/05/04 05:40:47;;;;;;;14.45;8.07;;;10.30;99.90;;;;;;5024985;28;20041;-58
2022/05/04 05:43:14;;;;;;;16.40;7.70;;;10.30;99.90;;;;;;5027838;28;20048;-58
2022/05/04 05:45:42;;;;;;;13.63;7.25;;;10.30;99.90;;;;;;5028954;28;20421;-58
2022/05/04 05:48:10;;;;;;;16.52;8.05;;;10.30;99.90;;;;;;5020388;28;20038;-58
2022/05/04 05:50:37;;;;;;;15.77;7.68;;;10.30;99.90;;;;;;5023317;28;20061;-58
2022/05/04 05:53:05;;;;;;;15.73;7.85;;;10.30;99.90;;;;;;5023557;28;20445;-59
2022/05/04 05:55:33;;;;;;;17.38;7.55;;;10.20;99.90;;;;;;5025774;28;20053;-58
2022/05/04 05:58:01;;;;;;;13.60;7.90;;;10.30;99.90;;;;;;5024466;28;20049;-59
2022/05/04 06:00:28;;;;;;;14.40;7.55;;;10.20;99.90;;;;;;5025158;28;20068;-58
2022/05/04 06:02:56;;;;;;;10.85;7.03;;;10.20;99.90;;;;;;5027341;28;20040;-58
2022/05/04 06:05:24;;;;;;;14.32;7.28;;;10.10;99.90;;;;;;5025187;28;20085;-58
2022/05/04 06:07:51;;;;;;;13.13;6.80;;;10.10;99.90;;;;;;5028903;28;20052;-58
2022/05/04 06:10:19;;;;;;;12.10;7.20;;;10.10;99.90;;;;;;5026431;28;20669;-58
2022/05/04 06:12:47;;;;;;;12.57;7.03;;;10.10;99.90;;;;;;5027772;28;20045;-58
2022/05/04 06:15:14;;;;;;;16.25;7.68;;;10.10;99.90;;;;;;5027025;28;20053;-59
2022/05/04 06:17:44;;;;;;;12.82;7.82;;;10.10;99.90;;;;;;5025253;28;20041;-59
2022/05/04 06:20:12;;;;;;;15.88;7.65;;;10.10;99.90;;;;;;5025195;28;20397;-59
2022/05/04 06:22:39;;;;;;;13.98;7.65;;;10.00;99.90;;;;;;5028672;28;20520;-59
2022/05/04 06:25:07;;;;;;;11.45;6.85;;;10.00;99.90;;;;;;5028501;28;20056;-58
2022/05/04 06:27:35;;;;;;;13.38;6.88;;;10.00;99.90;;;;;;5017703;28;20072;-59
2022/05/04 06:35:36;;;;;;;14.70;7.47;;;10.10;99.90;;;;;;5022649;28;20042;-59
2022/05/04 06:38:10;;;;;;;14.77;7.78;;;10.10;99.90;;;;;;5022253;28;20495;-61
2022/05/04 06:40:41;;;;;;;14.95;7.07;;;10.10;99.90;;;;;;5028534;28;20054;-62
2022/05/04 06:43:08;;;;;;;14.25;7.28;;;10.10;99.90;;;;;;5024820;28;20045;-62
2022/05/04 06:45:36;;;;;;;14.45;8.07;;;10.10;99.90;;;;;;5023964;28;20065;-61
2022/05/04 06:48:06;;;;;;;15.10;7.07;;;10.10;99.90;;;;;;5006442;28;20057;-62
2022/05/04 06:50:33;;;;;;;18.17;8.32;;;10.10;99.90;;;;;;5023178;28;20050;-61
2022/05/04 06:53:01;;;;;;;17.85;8.18;;;10.10;99.90;;;;;;5052412;28;20038;-61
2022/05/04 06:55:29;;;;;;;14.80;7.88;;;10.10;99.90;;;;;;5010359;28;20050;-61
2022/05/04 06:57:56;;;;;;;18.58;8.88;;;10.20;99.90;;;;;;5018806;28;20041;-60
2022/05/04 07:00:24;;;;;;;16.95;8.52;;;10.20;99.90;;;;;;5018583;28;20042;-58
2022/05/04 07:02:51;;;;;;;17.83;9.25;;;10.20;99.90;;;;;;5021315;28;20042;-59
2022/05/04 07:05:19;;;;;;;16.83;9.30;;;10.30;99.90;;;;;;5056204;28;20046;-58
2022/05/04 07:07:48;;;;;;;18.10;9.35;;;10.40;99.90;;;;;;5023269;28;20045;-58
2022/05/04 07:10:16;;;;;;;15.13;8.15;;;10.50;99.90;;;;;;5027952;28;20049;-58
2022/05/04 07:12:43;;;;;;;23.00;8.65;;;10.50;99.90;;;;;;5027363;28;20045;-59
2022/05/04 07:15:11;;;;;;;18.70;9.07;;;10.60;99.90;;;;;;5032393;28;20049;-60
2022/05/04 07:17:39;;;;;;;15.90;9.23;;;10.70;99.90;;;;;;5031858;28;20054;-59
2022/05/04 07:20:08;;;;;;;15.52;9.27;;;10.70;99.90;;;;;;5030098;28;20041;-59
2022/05/04 07:22:36;;;;;;;16.60;8.45;;;10.70;99.90;;;;;;5030143;28;20053;-59
2022/05/04 07:25:06;;;;;;;18.23;8.98;;;10.80;99.90;;;;;;5031412;28;20056;-59
2022/05/04 07:27:34;;;;;;;17.80;9.07;;;10.80;99.90;;;;;;5032252;28;20057;-59
2022/05/04 07:30:02;;;;;;;20.13;9.18;;;10.80;99.90;;;;;;5028327;28;20057;-59
2022/05/04 07:32:30;;;;;;;17.27;8.55;;;10.80;99.90;;;;;;5025741;28;20057;-59
2022/05/04 07:34:58;;;;;;;16.40;9.45;;;10.90;99.90;;;;;;5026503;28;20056;-60
2022/05/04 07:37:25;;;;;;;18.10;8.98;;;10.90;99.90;;;;;;5024836;28;20052;-58
2022/05/04 07:42:41;;;;;;;20.67;8.45;;;11.00;99.90;;;;;;5027068;28;20079;-59
2022/05/04 07:45:11;;;;;;;14.17;8.40;;;11.00;99.90;;;;;;5028591;28;20413;-59
2022/05/04 07:47:40;;;;;;;13.13;7.57;;;11.00;99.90;;;;;;5030653;28;20416;-58
2022/05/04 07:50:11;;;;;;;15.32;8.50;;;11.00;99.90;;;;;;5028833;28;20045;-61
2022/05/04 07:52:39;;;;;;;13.80;7.90;;;10.90;99.90;;;;;;5020520;28;20057;-59
2022/05/04 07:55:07;;;;;;;14.02;8.55;;;10.90;99.90;;;;;;5022418;28;20504;-61
2022/05/04 07:57:35;;;;;;;16.40;9.02;;;10.90;99.90;;;;;;5030777;28;20044;-59
2022/05/04 08:05:41;;;;;;;14.35;8.02;;;11.00;99.90;;;;;;5025781;28;20441;-57
2022/05/04 08:08:09;;;;;;;15.48;8.68;;;11.00;99.90;;;;;;5004919;28;20061;-58
2022/05/04 08:10:37;;;;;;;13.70;7.32;;;11.00;99.90;;;;;;5028554;28;20037;-58
2022/05/04 08:13:04;;;;;;;13.57;8.02;;;11.10;99.90;;;;;;5032044;28;20409;-59
2022/05/04 08:15:32;;;;;;;11.35;7.07;;;11.20;99.90;;;;;;5030802;28;20512;-58
2022/05/04 08:18:02;;;;;;;11.20;7.10;;;11.30;99.90;;;;;;5030925;28;20064;-58
2022/05/04 08:20:32;;;;;;;11.55;6.60;;;11.30;99.90;;;;;;5028607;28;20060;-58
2022/05/04 08:23:00;;;;;;;12.15;7.05;;;11.40;99.90;;;;;;5030411;28;20046;-58
2022/05/04 08:25:28;;;;;;;11.93;6.90;;;11.60;99.90;;;;;;5026467;28;20041;-57
2022/05/04 08:27:56;;;;;;;14.93;7.40;;;11.70;99.90;;;;;;5058008;28;20045;-58
2022/05/04 08:30:24;;;;;;;13.68;7.43;;;11.90;99.90;;;;;;5027039;28;20049;-57
2022/05/04 08:32:52;;;;;;;12.90;6.85;;;12.00;99.90;;;;;;5033186;28;20083;-58
2022/05/04 08:35:20;;;;;;;10.35;6.75;;;12.10;99.90;;;;;;5031049;28;20049;-57
2022/05/04 08:37:48;;;;;;;10.50;6.78;;;12.10;99.90;;;;;;5031685;28;20033;-58
2022/05/04 08:40:16;;;;;;;12.60;7.60;;;12.20;99.90;;;;;;5039477;28;20044;-57
2022/05/04 08:42:45;;;;;;;12.40;6.93;;;12.30;99.90;;;;;;5032823;28;20052;-58
2022/05/04 08:45:14;;;;;;;14.60;7.57;;;12.40;99.90;;;;;;5028985;28;20041;-59
2022/05/04 08:47:44;;;;;;;11.35;7.22;;;12.50;99.90;;;;;;5029716;28;20401;-58
2022/05/04 08:50:14;;;;;;;11.52;6.50;;;12.60;99.90;;;;;;5030504;28;20046;-58
2022/05/04 08:52:56;;;;;;;9.60;6.30;;;12.60;99.90;;;;;;5022436;28;20493;-58
2022/05/04 08:55:24;;;;;;;12.18;6.97;;;12.60;99.90;;;;;;5027572;28;20054;-58
2022/05/04 08:57:55;;;;;;;11.60;6.40;;;12.50;99.90;;;;;;5023408;28;20045;-57
2022/05/04 09:00:24;;;;;;;11.15;6.80;;;12.50;99.90;;;;;;5026024;28;20041;-58
2022/05/04 09:02:52;;;;;;;12.70;6.28;;;12.40;99.90;;;;;;5021069;28;20042;-57
2022/05/04 09:05:23;;;;;;;11.15;6.47;;;12.30;99.90;;;;;;5032722;28;20116;-58
2022/05/04 09:07:54;;;;;;;9.32;6.60;;;12.20;99.90;;;;;;5027821;28;20045;-57
2022/05/04 09:10:22;;;;;;;10.45;7.05;;;12.20;99.90;;;;;;5009493;28;20057;-58
2022/05/04 09:12:54;;;;;;;10.07;6.45;;;12.10;99.90;;;;;;5015997;28;20049;-58
2022/05/04 09:15:25;;;;;;;13.02;7.38;;;12.20;99.90;;;;;;5031516;28;20033;-57
2022/05/04 09:18:15;;;;;;;11.75;7.13;;;12.20;99.90;;;;;;5027960;28;20045;-59
2022/05/04 09:20:45;;;;;;;12.20;7.60;;;12.20;99.90;;;;;;5026474;28;20056;-58
2022/05/04 09:23:19;;;;;;;;;;;12.30;99.90;;;;;;5027077;28;20079;-58
2022/05/04 09:25:54;;;;;;;12.32;7.03;;;12.50;99.90;;;;;;5029398;28;19924;-62
2022/05/04 09:28:26;;;;;;;9.60;6.63;;;12.70;99.90;;;;;;5026843;28;20050;-60
2022/05/04 09:30:56;;;;;;;10.18;6.30;;;12.80;99.90;;;;;;5009403;28;20494;-62
2022/05/04 09:33:28;;;;;;;8.80;6.00;;;12.80;99.90;;;;;;5023017;28;20038;-59
2022/05/04 09:35:57;;;;;;;10.40;6.30;;;12.90;99.90;;;;;;5010991;28;20409;-58
2022/05/04 09:46:56;;;;;;;14.68;7.22;;;12.40;99.90;;;;;;5018393;28;20060;-57
2022/05/04 09:49:30;;;;;;;12.77;7.38;;;12.40;99.90;;;;;;5022117;28;20038;-57
2022/05/04 09:52:02;;;;;;;13.27;7.90;;;12.30;99.90;;;;;;5009007;28;20046;-56
2022/05/04 09:54:30;;;;;;;18.10;8.32;;;12.30;99.90;;;;;;5014738;28;20053;-57
2022/05/04 09:57:02;;;;;;;15.10;6.72;;;12.30;99.90;;;;;;5025738;28;20049;-56
2022/05/04 09:59:32;;;;;;;12.02;7.30;;;12.30;99.90;;;;;;5028554;28;20041;-56
2022/05/04 10:02:02;;;;;;;17.40;8.43;;;12.30;99.90;;;;;;5029642;28;20053;-57
2022/05/04 10:04:34;;;;;;;19.58;9.75;;;12.30;99.90;;;;;;5018690;28;20054;-57
2022/05/04 10:07:10;;;;;;;15.00;8.50;;;12.30;99.90;;;;;;5015624;28;20056;-56
2022/05/04 10:09:38;;;;;;;11.95;7.95;;;12.40;99.90;;;;;;5010228;28;20041;-57
2022/05/04 10:12:07;;;;;;;13.70;8.18;;;12.40;99.90;;;;;;5031182;28;20049;-58
2022/05/04 10:14:35;;;;;;;13.80;8.02;;;12.50;99.90;;;;;;5029509;28;20049;-59
2022/05/04 10:17:14;;;;;;;13.60;8.38;;;12.50;99.90;;;;;;5028900;28;20039;-57
2022/05/04 10:19:45;;;;;;;14.32;8.82;;;12.60;99.90;;;;;;5023814;28;20528;-58
2022/05/04 10:22:22;;;;;;;16.13;8.63;;;12.70;99.90;;;;;;5031971;28;20508;-58
2022/05/04 10:24:51;;;;;;;14.75;9.05;;;12.80;99.90;;;;;;5025326;28;20065;-58
2022/05/04 10:27:22;;;;;;;14.35;8.18;;;13.00;99.90;;;;;;5021974;28;20053;-57
2022/05/04 10:32:47;;;;;;;11.85;7.75;;;13.50;99.90;;;;;;5013448;28;20067;-58
2022/05/04 10:35:20;;;;;;;9.15;5.20;;;13.70;99.90;;;;;;5027216;28;20041;-58
2022/05/04 10:37:51;;;;;;;8.43;6.20;;;13.90;99.90;;;;;;5026337;28;20496;-58
2022/05/04 10:40:36;;;;;;;8.85;5.00;;;14.00;99.90;;;;;;5022333;28;20053;-57
2022/05/04 10:43:18;;;;;;;5.63;4.22;;;14.10;99.90;;;;;;5027285;28;20057;-57
2022/05/04 10:45:49;;;;;;;8.15;4.43;;;14.10;99.90;;;;;;5023959;28;20053;-57
2022/05/04 10:48:20;;;;;;;8.73;5.00;;;14.00;99.90;;;;;;5014169;28;20068;-57
2022/05/04 10:51:00;;;;;;;9.80;2.85;;;13.90;99.90;;;;;;5053502;28;20041;-56
2022/05/04 10:53:28;;;;;;;7.78;2.85;;;13.70;99.90;;;;;;5029390;28;20828;-56
2022/05/04 10:56:12;;;;;;;4.07;1.90;;;13.40;99.90;;;;;;5029476;28;20079;-56
2022/05/04 10:58:49;;;;;;;5.70;2.03;;;13.20;99.90;;;;;;5013523;28;20054;-55
2022/05/04 11:01:24;;;;;;;6.43;2.80;;;13.00;99.90;;;;;;5031610;28;20037;-57
2022/05/04 11:04:10;;;;;;;5.93;3.13;;;12.90;99.90;;;;;;5029177;28;20061;-56
2022/05/04 11:06:38;;;;;;;5.40;4.05;;;12.80;99.90;;;;;;5019730;28;20489;-57
2022/05/04 11:09:10;;;;;;;7.38;3.85;;;12.80;99.90;;;;;;5028226;28;20072;-56
2022/05/04 11:11:41;;;;;;;10.02;3.65;;;12.80;99.90;;;;;;5015395;28;20528;-57
2022/05/04 11:14:10;;;;;;;5.80;2.72;;;12.90;99.90;;;;;;5013203;28;20046;-56
2022/05/04 11:16:40;;;;;;;3.60;2.70;;;13.00;99.90;;;;;;5026529;28;20049;-55
2022/05/04 11:19:11;;;;;;;2.22;1.63;;;13.10;99.90;;;;;;5028926;28;20066;-56
2022/05/04 11:21:39;;;;;;;1.85;1.15;;;13.10;99.90;;;;;;5027378;28;20049;-56
2022/05/04 11:24:09;;;;;;;1.48;1.20;;;12.90;99.90;;;;;;5012702;28;20053;-57
2022/05/04 11:26:38;;;;;;;;;;;12.80;99.90;;;;;;5022899;28;20038;-56
2022/05/04 11:29:17;;;;;;;2.22;1.17;;;12.70;99.90;;;;;;5032998;28;20284;-56
2022/05/04 11:31:48;;;;;;;3.38;1.45;;;12.60;99.90;;;;;;5031906;28;20068;-56
2022/05/04 11:34:17;;;;;;;1.40;1.30;;;12.60;99.90;;;;;;4998647;28;20046;-57
2022/05/04 11:36:47;;;;;;;1.40;1.30;;;12.70;99.90;;;;;;5031827;28;20045;-62
2022/05/04 11:39:16;;;;;;;3.05;1.58;;;12.70;99.90;;;;;;5035122;28;20052;-60
2022/05/04 11:41:49;;;;;;;2.13;1.75;;;12.80;99.90;;;;;;5027012;28;20043;-57
2022/05/04 11:44:21;;;;;;;1.75;1.65;;;12.90;99.90;;;;;;5035397;28;20053;-56
2022/05/04 11:46:54;;;;;;;3.03;2.25;;;13.00;99.90;;;;;;5032767;28;20045;-56
2022/05/04 11:49:23;;;;;;;3.30;2.20;;;13.10;99.90;;;;;;5062804;28;20041;-57
2022/05/04 11:51:52;;;;;;;2.77;2.43;;;13.30;99.90;;;;;;5032316;28;20072;-58
2022/05/04 11:54:20;;;;;;;2.75;2.20;;;13.50;99.90;;;;;;5012054;28;20046;-61
2022/05/04 11:56:48;;;;;;;2.30;2.00;;;13.50;99.90;;;;;;5017969;28;20504;-61
2022/05/04 11:59:16;;;;;;;5.22;2.65;;;13.70;99.90;;;;;;5031179;28;20045;-58
2022/05/04 12:01:45;;;;;;;2.45;1.40;;;13.90;99.90;;;;;;5030924;28;20048;-59
2022/05/04 12:04:14;;;;;;;3.33;1.02;;;13.90;99.90;;;;;;5032436;28;20061;-61
2022/05/04 12:06:43;;;;;;;2.13;1.20;;;13.80;99.90;;;;;;5030892;28;20048;-57
2022/05/04 12:09:18;;;;;;;2.33;1.45;;;13.80;99.90;;;;;;5030356;28;20045;-58
2022/05/04 12:11:47;;;;;;;2.53;1.20;;;13.70;99.90;;;;;;5028728;28;20049;-59
2022/05/04 12:14:16;;;;;;;1.50;1.27;;;13.60;99.90;;;;;;5030220;28;20046;-59
2022/05/04 12:16:44;;;;;;;7.93;1.73;;;13.60;99.90;;;;;;5030290;28;20049;-59
2022/05/04 12:19:12;;;;;;;1.55;0.93;;;13.50;99.90;;;;;;5024034;28;20057;-59
2022/05/04 12:21:39;;;;;;;2.85;1.15;;;13.60;99.90;;;;;;5032475;28;20052;-61
2022/05/04 12:24:07;;;;;;;1.60;1.13;;;13.60;99.90;;;;;;5033785;28;20050;-61
2022/05/04 12:26:36;;;;;;;1.30;1.20;;;13.70;99.90;;;;;;5026355;28;20041;-58
2022/05/04 12:34:36;;;;;;;0.52;0.45;;;14.10;99.90;;;;;;5031159;28;20041;-57
2022/05/04 12:37:04;;;;;;;0.85;0.40;;;14.00;99.90;;;;;;5030234;28;20045;-57
2022/05/04 12:39:32;;;;;;;1.13;0.43;;;14.00;99.90;;;;;;5030377;28;20037;-58
2022/05/04 12:42:00;;;;;;;0.90;0.60;;;13.90;99.90;;;;;;5015400;28;20065;-58
2022/05/04 12:44:34;;;;;;;1.15;0.50;;;13.90;99.90;;;;;;5029638;28;20049;-58
2022/05/04 12:47:03;;;;;;;0.70;0.50;;;13.90;99.90;;;;;;5027887;28;20049;-57
2022/05/04 12:49:33;;;;;;;1.65;0.80;;;13.90;99.90;;;;;;5029486;28;20053;-58
2022/05/04 12:52:01;;;;;;;1.92;0.93;;;13.90;99.90;;;;;;5031294;28;20045;-59
2022/05/04 12:54:30;;;;;;;0.90;0.90;;;14.00;99.90;;;;;;5010731;28;20053;-60
2022/05/04 12:56:59;;;;;;;1.02;0.93;;;13.90;99.90;;;;;;5028906;28;20060;-58
2022/05/04 12:59:26;;;;;;;1.67;1.00;;;13.90;99.90;;;;;;5011218;28;20049;-58
2022/05/04 13:01:55;;;;;;;2.90;1.50;;;13.90;99.90;;;;;;5062567;28;20056;-60
2022/05/04 13:04:23;;;;;;;2.35;1.40;;;14.10;99.90;;;;;;5030200;28;20053;-58
2022/05/04 13:06:50;;;;;;;1.73;1.20;;;14.60;99.90;;;;;;5030270;28;20045;-59
2022/05/04 13:09:18;;;;;;;3.05;1.23;;;14.80;99.90;;;;;;5029486;28;20042;-58
2022/05/04 13:11:46;;;;;;;1.60;1.45;;;14.80;99.90;;;;;;5027112;28;20064;-58
2022/05/04 13:14:14;;;;;;;2.38;1.27;;;14.90;99.90;;;;;;5030172;28;20045;-58
2022/05/04 13:16:43;;;;;;;1.48;1.30;;;14.70;99.90;;;;;;5030157;28;20045;-58
2022/05/04 13:19:12;;;;;;;2.50;1.23;;;14.60;99.90;;;;;;5027845;28;20045;-59
2022/05/04 13:21:40;;;;;;;1.45;1.17;;;14.50;99.90;;;;;;5023980;28;20046;-59
2022/05/04 13:24:08;;;;;;;3.15;1.38;;;14.50;99.90;;;;;;5030242;28;20068;-59
2022/05/04 13:26:36;;;;;;;3.83;1.45;;;14.60;99.90;;;;;;5026809;28;20046;-59